createdAt,value
2022-11-12T00:01:46.514Z,10.85
2022-11-12T00:05:08.304Z,9.63
2022-11-12T00:08:30.862Z,10.13
2022-11-12T00:11:52.083Z,10.52
2022-11-12T00:15:13.972Z,10.63
2022-11-12T00:18:35.442Z,9.82
2022-11-12T00:21:56.898Z,10.63
2022-11-12T00:25:19.641Z,9.00
2022-11-12T00:28:40.983Z,9.90
2022-11-12T00:32:02.329Z,9.70
2022-11-12T00:35:23.520Z,9.90
2022-11-12T00:38:44.759Z,9.98
2022-11-12T00:42:07.439Z,9.95
2022-11-12T00:45:28.648Z,9.40
2022-11-12T00:48:49.956Z,9.50
2022-11-12T00:52:11.411Z,9.48
2022-11-12T00:55:32.632Z,8.90
2022-11-12T00:58:55.435Z,9.35
2022-11-12T01:02:17.093Z,9.00
2022-11-12T01:05:38.369Z,8.98
2022-11-12T01:08:59.535Z,8.98
2022-11-12T01:12:20.686Z,8.55
2022-11-12T01:15:43.766Z,8.90
2022-11-12T01:19:06.927Z,8.70
2022-11-12T01:22:28.386Z,8.20
2022-11-12T01:25:49.726Z,8.63
2022-11-12T01:29:11.132Z,8.60
2022-11-12T01:32:37.861Z,7.50
2022-11-12T01:35:59.848Z,7.80
2022-11-12T01:39:21.406Z,7.82
2022-11-12T01:42:42.674Z,8.27
2022-11-12T01:46:07.081Z,7.47
2022-11-12T01:49:36.725Z,8.32
2022-11-12T01:53:03.077Z,7.32
2022-11-12T01:56:27.767Z,7.07
2022-11-12T01:59:51.381Z,7.63
2022-11-12T02:03:20.074Z,7.78
2022-11-12T02:06:44.298Z,7.90
2022-11-12T02:10:07.553Z,7.68
2022-11-12T02:13:46.916Z,7.60
2022-11-12T02:17:08.428Z,7.28
2022-11-12T02:20:34.615Z,7.50
2022-11-12T02:24:02.367Z,7.82
2022-11-12T02:27:24.990Z,7.45
2022-11-12T02:30:48.685Z,7.10
2022-11-12T02:34:10.224Z,7.13
2022-11-12T02:37:31.435Z,7.35
2022-11-12T02:40:54.374Z,6.80
2022-11-12T02:44:15.779Z,7.38
2022-11-12T02:47:37.032Z,6.60
2022-11-12T02:50:58.386Z,6.75
2022-11-12T02:54:19.697Z,6.95
2022-11-12T02:57:42.700Z,6.53
2022-11-12T03:01:04.076Z,6.28
2022-11-12T03:04:25.532Z,6.85
2022-11-12T03:07:47.430Z,6.60
2022-11-12T03:11:11.485Z,6.93
2022-11-12T03:14:34.481Z,6.68
2022-11-12T03:17:56.102Z,6.70
2022-11-12T03:21:17.334Z,6.55
2022-11-12T03:24:38.606Z,6.13
2022-11-12T03:28:00.815Z,6.38
2022-11-12T03:31:23.828Z,6.40
2022-11-12T03:34:45.200Z,5.80
2022-11-12T03:38:06.981Z,6.20
2022-11-12T03:41:28.285Z,6.30
2022-11-12T03:44:49.477Z,6.68
2022-11-12T03:48:12.244Z,6.32
2022-11-12T03:51:33.838Z,6.13
2022-11-12T03:54:55.146Z,5.88
2022-11-12T03:58:16.282Z,6.15
2022-11-12T04:01:38.515Z,5.90
2022-11-12T04:05:19.318Z,6.13
2022-11-12T04:08:40.749Z,6.28
2022-11-12T04:12:22.824Z,5.88
2022-11-12T04:15:44.449Z,5.63
2022-11-12T04:19:24.842Z,5.63
2022-11-12T04:22:47.710Z,6.13
2022-11-12T04:26:26.012Z,5.72
2022-11-12T04:30:05.505Z,5.40
2022-11-12T04:33:26.959Z,5.32
2022-11-12T04:36:48.113Z,5.15
2022-11-12T04:40:26.223Z,5.13
2022-11-12T04:44:05.134Z,5.68
2022-11-12T04:47:26.922Z,5.55
2022-11-12T04:50:51.395Z,5.15
2022-11-12T04:54:12.905Z,5.47
2022-11-12T04:57:35.330Z,5.38
2022-11-12T05:00:56.545Z,4.90
2022-11-12T05:04:18.280Z,4.65
2022-11-12T05:07:39.623Z,4.85
2022-11-12T05:11:00.899Z,5.30
2022-11-12T05:14:23.635Z,5.20
2022-11-12T05:17:45.910Z,4.88
2022-11-12T05:21:21.041Z,4.90
2022-11-12T05:24:44.330Z,4.68
2022-11-12T05:28:07.056Z,5.30
2022-11-12T05:31:30.192Z,4.63
2022-11-12T05:34:51.661Z,5.15
2022-11-12T05:38:12.912Z,4.38
2022-11-12T05:41:58.085Z,4.75
2022-11-12T05:45:15.677Z,4.75
2022-11-12T05:48:38.532Z,4.30
2022-11-12T05:51:59.956Z,4.60
2022-11-12T05:55:21.239Z,4.70
2022-11-12T05:58:42.406Z,5.07
2022-11-12T06:02:03.584Z,4.53
2022-11-12T06:05:26.715Z,5.00
2022-11-12T06:08:48.112Z,4.93
2022-11-12T06:12:09.360Z,4.50
2022-11-12T06:15:32.829Z,4.30
2022-11-12T06:18:57.099Z,4.53
2022-11-12T06:22:20.046Z,3.97
2022-11-12T06:25:41.435Z,4.85
2022-11-12T06:29:02.782Z,4.15
2022-11-12T06:32:24.672Z,4.72
2022-11-12T06:35:46.156Z,4.95
2022-11-12T06:39:08.816Z,4.97
2022-11-12T06:42:29.963Z,3.97
2022-11-12T06:45:51.079Z,4.10
2022-11-12T06:49:12.369Z,4.13
2022-11-12T06:52:33.669Z,4.45
2022-11-12T06:56:02.919Z,4.65
2022-11-12T06:59:24.456Z,4.07
2022-11-12T07:02:46.067Z,3.78
2022-11-12T07:06:09.742Z,4.40
2022-11-12T07:09:31.333Z,4.00
2022-11-12T07:12:56.581Z,4.40
2022-11-12T07:16:19.597Z,4.22
2022-11-12T07:19:41.826Z,3.97
2022-11-12T07:23:03.309Z,4.47
2022-11-12T07:26:27.524Z,4.13
2022-11-12T07:29:50.179Z,3.92
2022-11-12T07:33:11.641Z,4.20
2022-11-12T07:36:33.095Z,4.30
2022-11-12T07:39:54.470Z,3.95
2022-11-12T07:43:15.770Z,4.50
2022-11-12T07:46:38.660Z,3.50
2022-11-12T07:50:00.349Z,4.15
2022-11-12T07:53:21.506Z,4.28
2022-11-12T07:56:42.798Z,3.85
2022-11-12T08:00:04.916Z,4.00
2022-11-12T08:03:27.810Z,3.80
2022-11-12T08:06:49.327Z,3.80
2022-11-12T08:10:11.547Z,4.13
2022-11-12T08:13:32.900Z,3.97
2022-11-12T08:16:54.045Z,4.22
2022-11-12T08:20:16.814Z,4.18
2022-11-12T08:23:38.405Z,4.40
2022-11-12T08:26:59.794Z,4.45
2022-11-12T08:30:21.404Z,4.15
2022-11-12T08:33:43.175Z,4.03
2022-11-12T08:37:05.813Z,4.18
2022-11-12T08:40:27.505Z,3.88
2022-11-12T08:43:48.718Z,3.63
2022-11-12T08:47:10.106Z,4.00
2022-11-12T08:50:31.885Z,4.35
2022-11-12T08:53:54.835Z,3.60
2022-11-12T08:57:16.496Z,3.70
2022-11-12T09:00:40.267Z,3.80
2022-11-12T09:04:01.502Z,3.50
2022-11-12T09:07:47.972Z,3.45
2022-11-12T09:11:05.967Z,3.65
2022-11-12T09:14:27.297Z,3.40
2022-11-12T09:17:49.053Z,3.50
2022-11-12T09:21:13.118Z,3.67
2022-11-12T09:24:34.391Z,4.10
2022-11-12T09:27:57.034Z,3.85
2022-11-12T09:31:18.235Z,3.63
2022-11-12T09:34:39.610Z,3.80
2022-11-12T09:38:01.062Z,3.60
2022-11-12T09:41:27.996Z,3.53
2022-11-12T09:44:57.833Z,3.63
2022-11-12T09:48:23.249Z,3.70
2022-11-12T09:51:50.688Z,3.55
2022-11-12T09:55:19.982Z,3.65
2022-11-12T09:58:41.149Z,3.67
2022-11-12T10:02:19.260Z,3.58
2022-11-12T10:05:43.804Z,3.30
2022-11-12T10:09:10.615Z,3.40
2022-11-12T10:12:43.549Z,3.47
2022-11-12T10:16:51.098Z,2.97
2022-11-12T10:20:19.846Z,3.70
2022-11-12T10:23:44.717Z,3.10
2022-11-12T10:27:16.636Z,3.20
2022-11-12T10:30:38.425Z,3.40
2022-11-12T10:34:16.041Z,3.30
2022-11-12T10:37:43.860Z,3.35
2022-11-12T10:41:20.346Z,3.30
2022-11-12T10:44:43.241Z,3.75
2022-11-12T10:48:04.506Z,3.10
2022-11-12T10:51:28.586Z,3.60
2022-11-12T10:55:07.263Z,3.17
2022-11-12T10:58:28.883Z,3.17
2022-11-12T11:01:56.610Z,3.75
2022-11-12T11:05:31.956Z,3.45
2022-11-12T11:08:54.812Z,3.25
2022-11-12T11:12:26.954Z,2.95
2022-11-12T11:16:01.793Z,2.78
2022-11-12T11:19:23.722Z,2.80
2022-11-12T11:22:48.061Z,3.10
2022-11-12T11:26:23.601Z,3.17
2022-11-12T11:30:02.830Z,3.42
2022-11-12T11:33:35.250Z,2.75
2022-11-12T11:37:03.849Z,3.05
2022-11-12T11:40:30.062Z,3.00
2022-11-12T11:44:11.204Z,2.88
2022-11-12T11:48:00.510Z,3.15
2022-11-12T11:51:38.868Z,4.28
2022-11-12T11:55:15.726Z,3.40
2022-11-12T11:59:04.290Z,3.83
2022-11-12T12:02:45.168Z,4.10
2022-11-12T12:06:20.870Z,3.70
2022-11-12T12:09:47.733Z,3.72
2022-11-12T12:13:17.746Z,4.80
2022-11-12T12:16:56.109Z,3.70
2022-11-12T12:20:22.876Z,3.50
2022-11-12T12:23:49.726Z,3.60
2022-11-12T12:27:15.244Z,3.40
2022-11-12T12:30:40.948Z,3.97
2022-11-12T12:34:06.848Z,3.20
2022-11-12T12:37:38.602Z,3.10
2022-11-12T12:41:06.653Z,3.30
2022-11-12T12:44:45.927Z,3.42
2022-11-12T12:48:13.789Z,3.70
2022-11-12T12:51:35.687Z,3.35
2022-11-12T12:54:59.667Z,3.03
2022-11-12T12:58:28.452Z,3.50
2022-11-12T13:01:58.192Z,3.35
2022-11-12T13:05:31.289Z,4.00
2022-11-12T13:08:57.321Z,3.42
2022-11-12T13:12:25.836Z,3.70
2022-11-12T13:15:48.659Z,4.18
2022-11-12T13:19:10.119Z,3.97
2022-11-12T13:22:49.246Z,4.03
2022-11-12T13:26:48.471Z,4.15
2022-11-12T13:30:49.844Z,4.35
2022-11-12T13:34:22.585Z,4.30
2022-11-12T13:37:45.587Z,4.53
2022-11-12T13:41:15.984Z,3.97
2022-11-12T13:44:37.521Z,4.43
2022-11-12T13:47:59.197Z,4.57
2022-11-12T13:51:29.183Z,4.28
2022-11-12T13:55:02.173Z,4.53
2022-11-12T13:58:29.479Z,4.20
2022-11-12T14:01:51.791Z,4.28
2022-11-12T14:05:17.251Z,4.18
2022-11-12T14:08:58.920Z,5.18
2022-11-12T14:12:40.333Z,4.68
2022-11-12T14:16:30.813Z,4.85
2022-11-12T14:20:26.037Z,4.25
2022-11-12T14:23:50.664Z,4.07
2022-11-12T14:27:34.120Z,4.20
2022-11-12T14:30:55.479Z,4.40
2022-11-12T14:34:28.203Z,4.50
2022-11-12T14:37:52.952Z,4.50
2022-11-12T14:41:21.566Z,4.32
2022-11-12T14:44:43.007Z,4.90
2022-11-12T14:48:09.790Z,4.63
2022-11-12T14:51:33.497Z,5.18
2022-11-12T14:54:58.853Z,4.60
2022-11-12T14:58:23.870Z,4.80
2022-11-12T15:05:58.858Z,4.78
2022-11-12T15:09:32.336Z,5.60
2022-11-12T15:12:53.544Z,4.82
2022-11-12T15:16:22.484Z,5.55
2022-11-12T15:19:44.128Z,4.80
2022-11-12T15:23:06.083Z,4.68
2022-11-12T15:26:34.455Z,4.85
2022-11-12T15:30:16.080Z,5.30
2022-11-12T15:33:38.790Z,5.60
2022-11-12T15:37:03.225Z,5.85
2022-11-12T15:40:24.596Z,5.78
2022-11-12T15:43:46.048Z,5.68
2022-11-12T15:47:12.254Z,5.60
2022-11-12T15:50:34.983Z,6.13
2022-11-12T15:53:56.294Z,5.90
2022-11-12T15:57:19.718Z,5.85
2022-11-12T16:00:40.924Z,6.07
2022-11-12T16:04:02.230Z,6.15
2022-11-12T16:07:24.808Z,6.35
2022-11-12T16:10:47.378Z,6.70
2022-11-12T16:14:13.898Z,6.72
2022-11-12T16:17:35.284Z,7.03
2022-11-12T16:20:56.577Z,6.65
2022-11-12T16:24:19.110Z,7.32
2022-11-12T16:27:41.688Z,7.28
2022-11-12T16:31:02.930Z,7.65
2022-11-12T16:34:24.041Z,6.07
2022-11-12T16:37:46.565Z,5.93
2022-11-12T16:41:12.755Z,7.35
2022-11-12T16:44:34.189Z,8.05
2022-11-12T16:47:57.071Z,7.07
2022-11-12T16:51:20.217Z,7.75
2022-11-12T16:54:41.649Z,7.97
2022-11-12T16:58:04.711Z,7.68
2022-11-12T17:01:28.299Z,8.32
2022-11-12T17:04:50.003Z,7.75
2022-11-12T17:08:11.626Z,8.10
2022-11-12T17:11:33.089Z,8.27
2022-11-12T17:14:56.051Z,8.27
2022-11-12T17:18:17.293Z,8.27
2022-11-12T17:21:38.486Z,8.43
2022-11-12T17:24:59.669Z,9.23
2022-11-12T17:28:20.811Z,8.98
2022-11-12T17:31:43.311Z,9.00
2022-11-12T17:35:04.822Z,9.00
2022-11-12T17:38:26.383Z,9.65
2022-11-12T17:41:47.534Z,9.52
2022-11-12T17:45:09.789Z,10.63
2022-11-12T17:48:33.863Z,9.00
2022-11-12T17:51:55.177Z,9.15
2022-11-12T17:55:16.604Z,8.90
2022-11-12T17:58:38.540Z,9.50
2022-11-12T18:02:00.307Z,9.90
2022-11-12T18:05:23.002Z,9.45
2022-11-12T18:08:44.926Z,10.23
2022-11-12T18:12:06.766Z,10.18
2022-11-12T18:15:28.770Z,9.93
2022-11-12T18:18:50.883Z,9.85
2022-11-12T18:22:15.816Z,10.32
2022-11-12T18:25:38.270Z,9.05
2022-11-12T18:29:00.324Z,9.68
2022-11-12T18:32:21.692Z,9.77
2022-11-12T18:35:42.922Z,9.80
2022-11-12T18:39:06.275Z,10.05
2022-11-12T18:42:28.628Z,9.38
2022-11-12T18:45:55.246Z,9.38
2022-11-12T18:49:16.597Z,9.77
2022-11-12T18:52:38.244Z,8.90
2022-11-12T18:56:03.872Z,9.15
2022-11-12T18:59:30.547Z,8.38
2022-11-12T19:02:51.706Z,8.90
2022-11-12T19:06:14.222Z,8.93
2022-11-12T19:09:35.998Z,8.77
2022-11-12T19:13:00.835Z,9.48
2022-11-12T19:16:24.614Z,8.73
2022-11-12T19:19:46.017Z,9.55
2022-11-12T19:23:07.315Z,9.73
2022-11-12T19:26:29.254Z,8.90
2022-11-12T19:29:51.948Z,9.75
2022-11-12T19:33:16.250Z,9.50
2022-11-12T19:36:37.738Z,9.60
2022-11-12T19:39:59.259Z,9.60
2022-11-12T19:43:22.202Z,9.15
2022-11-12T19:46:45.132Z,9.07
2022-11-12T19:50:07.388Z,9.32
2022-11-12T19:53:31.687Z,9.43
2022-11-12T19:56:53.295Z,8.43
2022-11-12T20:00:15.891Z,8.55
2022-11-12T20:03:39.094Z,8.90
2022-11-12T20:07:00.669Z,8.65
2022-11-12T20:10:22.571Z,8.70
2022-11-12T20:13:44.155Z,9.43
2022-11-12T20:17:05.343Z,8.48
2022-11-12T20:20:28.159Z,8.60
2022-11-12T20:23:49.372Z,9.10
2022-11-12T20:27:10.816Z,9.35
2022-11-12T20:30:32.080Z,9.13
2022-11-12T20:33:53.446Z,8.93
2022-11-12T20:37:16.095Z,8.95
2022-11-12T20:40:37.802Z,9.65
2022-11-12T20:44:00.468Z,9.23
2022-11-12T20:47:22.006Z,9.45
2022-11-12T20:51:02.324Z,9.98
2022-11-12T20:54:26.031Z,8.30
2022-11-12T20:57:47.641Z,8.80
2022-11-12T21:01:11.275Z,8.18
2022-11-12T21:04:32.836Z,9.25
2022-11-12T21:07:55.708Z,8.27
2022-11-12T21:11:20.358Z,9.15
2022-11-12T21:14:44.854Z,9.23
2022-11-12T21:18:08.985Z,9.38
2022-11-12T21:21:31.569Z,9.00
2022-11-12T21:24:53.239Z,9.23
2022-11-12T21:28:15.813Z,9.20
2022-11-12T21:31:37.478Z,8.70
2022-11-12T21:34:58.818Z,8.43
2022-11-12T21:38:20.093Z,8.43
2022-11-12T21:41:41.135Z,8.98
2022-11-12T21:45:04.113Z,9.20
2022-11-12T21:48:25.781Z,9.27
2022-11-12T21:51:47.836Z,8.77
2022-11-12T21:55:09.591Z,9.13
2022-11-12T21:58:31.269Z,8.00
2022-11-12T22:01:54.296Z,9.05
2022-11-12T22:05:16.369Z,8.63
2022-11-12T22:08:38.283Z,9.15
2022-11-12T22:11:59.737Z,10.65
2022-11-12T22:15:24.393Z,12.93
2022-11-12T22:18:49.087Z,12.50
2022-11-12T22:22:10.640Z,12.82
2022-11-12T22:25:32.050Z,14.82
2022-11-12T22:28:53.950Z,14.52
2022-11-12T22:32:15.266Z,13.80
2022-11-12T22:35:37.912Z,13.25
2022-11-12T22:38:59.748Z,13.15
2022-11-12T22:42:21.485Z,14.25
2022-11-12T22:45:43.049Z,13.68
2022-11-12T22:49:05.693Z,13.85
2022-11-12T22:52:28.840Z,14.15
2022-11-12T22:55:51.627Z,13.07
2022-11-12T22:59:13.960Z,14.07
2022-11-12T23:02:36.401Z,14.07
2022-11-12T23:05:58.851Z,13.23
2022-11-12T23:09:21.926Z,13.65
2022-11-12T23:12:43.525Z,13.77
2022-11-12T23:16:07.472Z,14.85
2022-11-12T23:19:29.349Z,13.80
2022-11-12T23:22:51.757Z,13.80
2022-11-12T23:26:17.147Z,13.80
2022-11-12T23:29:38.542Z,14.73
2022-11-12T23:32:59.971Z,14.02
2022-11-12T23:36:22.588Z,14.38
2022-11-12T23:39:43.884Z,13.65
2022-11-12T23:43:06.518Z,14.20
2022-11-12T23:46:27.964Z,13.95
2022-11-12T23:49:49.108Z,12.95
2022-11-12T23:53:10.629Z,13.63
2022-11-12T23:56:31.741Z,13.30
2022-11-12T23:59:54.497Z,13.55
